CW6238 Beemster NL current weather conditions

sailwx.info

Wind from 247 at 3 knots gusting 9

Air temperature 10.6° C
Dewpoint 6.9° C

Last reported at 2020-Jun-06 22:00 UTC.
Time now 2020-Jun-06 22:49 UTC

Location: N 59°16' E 017°56'.
View on Google Maps.

See reports from other nearby stations

  
Tides and Currents Weather Stations Pressure Air Temp Water Temp Dewpoint Dewpoint Depression Visibility Wind Speed Wind Dir Waves Ship Positions
date/time (UTC)wind fromknots sea level pressurealtimeterstation pressurevisibilityair tempwater tempwave heightnotes
2020-Jun-06 22:00 247 3 gusting 9 10.6
2020-Jun-06 21:59 247 1 gusting 5 10.6
2020-Jun-06 21:45 202 2 gusting 9 10.6
2020-Jun-06 21:44 270 2 gusting 9 10.6
2020-Jun-06 21:30 247 2 gusting 10 11.1
2020-Jun-06 21:29 247 2 gusting 11 11.1
2020-Jun-06 21:15 247 3 gusting 12 11.1
2020-Jun-06 21:14 180 2 gusting 8 11.1
2020-Jun-06 21:00 247 2 gusting 6 11.1
2020-Jun-06 20:59 225 2 gusting 10 11.1
2020-Jun-06 20:45 270 1 gusting 5 11.1
2020-Jun-06 20:44 180 1 gusting 6 11.1
2020-Jun-06 20:30 270 2 gusting 11 11.1
2020-Jun-06 20:29 247 2 gusting 10 11.1
2020-Jun-06 20:15 247 2 gusting 7 11.1
2020-Jun-06 20:14 202 1 gusting 5 11.1
2020-Jun-06 20:00 270 1 gusting 7 11.1
2020-Jun-06 19:59 157 0 gusting 3 11.1
2020-Jun-06 19:45 225 0 gusting 5 11.1
2020-Jun-06 19:44 202 1 gusting 5 11.1
2020-Jun-06 19:30 247 1 gusting 6 11.1
2020-Jun-06 19:29 157 1 gusting 9 11.1
2020-Jun-06 19:15 202 1 gusting 6 11.1
2020-Jun-06 19:14 202 1 gusting 5 11.1
2020-Jun-06 19:00 225 1 gusting 6 11.1
2020-Jun-06 18:59 247 0 gusting 4 11.1
2020-Jun-06 18:45 270 0 gusting 3 11.1
2020-Jun-06 18:44 225 0 gusting 3 11.1
2020-Jun-06 18:30 202 1 gusting 6 11.1
2020-Jun-06 18:29 225 1 gusting 6 11.1
2020-Jun-06 18:15 202 1 gusting 5 11.1
2020-Jun-06 18:14 247 3 gusting 9 11.1
2020-Jun-06 18:00 225 2 gusting 8 11.1
2020-Jun-06 17:59 225 1 gusting 8 11.1
2020-Jun-06 17:45 270 2 gusting 11 11.1
2020-Jun-06 17:44 247 2 gusting 11 11.1
2020-Jun-06 17:30 225 1 gusting 8 11.1
2020-Jun-06 17:29 180 0 gusting 5 11.7
2020-Jun-06 17:15 157 2 gusting 7 11.7
2020-Jun-06 17:14 270 1 gusting 6 11.7
2020-Jun-06 17:00 225 2 gusting 10 11.7
2020-Jun-06 16:59 157 0 gusting 3 11.7
2020-Jun-06 16:45 247 1 gusting 6 11.7
2020-Jun-06 16:44 270 2 gusting 10 11.7
2020-Jun-06 16:30 247 0 gusting 5 11.7
2020-Jun-06 16:29 247 2 gusting 9 11.7
2020-Jun-06 16:15 247 1 gusting 6 11.7
2020-Jun-06 16:14 270 4 gusting 11 11.7
2020-Jun-06 16:01 247 1 gusting 6 11.7
2020-Jun-06 15:59 270 0 gusting 2 11.7
2020-Jun-06 15:45 247 1 gusting 7 11.7
2020-Jun-06 15:44 247 1 gusting 6 11.7
2020-Jun-06 15:00 247 1 gusting 6 11.1
2020-Jun-06 14:59 11.1
2020-Jun-06 14:45 11.1
2020-Jun-06 14:44 11.1
2020-Jun-06 14:30 11.1
2020-Jun-06 14:29 247 0 gusting 3 11.1
2020-Jun-06 14:15 11.1
2020-Jun-06 14:14 11.1
2020-Jun-06 14:00 11.1
2020-Jun-06 13:59 11.1
2020-Jun-06 13:45 11.1
2020-Jun-06 13:44 11.1
2020-Jun-06 13:30 11.1
2020-Jun-06 13:29 10.6
2020-Jun-06 13:00 10.6
2020-Jun-06 12:59 112 1 gusting 6 10.6
2020-Jun-06 12:30 135 0 gusting 5 11.1
2020-Jun-06 12:29 135 0 gusting 2 10.6
2020-Jun-06 12:15 135 1 gusting 5 10.6
2020-Jun-06 12:14 135 1 gusting 5 10.6
2020-Jun-06 12:00 135 1 gusting 6 10.6
2020-Jun-06 11:59 112 0 gusting 3 10.6
2020-Jun-06 11:46 045 0 gusting 4 11.1
2020-Jun-06 11:44 135 0 gusting 2 11.1
2020-Jun-06 11:30 112 0 gusting 3 11.7
2020-Jun-06 11:29 270 1 gusting 6 11.7
2020-Jun-06 11:15 135 1 gusting 6 11.7
2020-Jun-06 11:14 135 1 gusting 6 11.7
2020-Jun-06 10:59 135 1 gusting 7 13.9
2020-Jun-06 10:45 112 1 gusting 6 14.4
2020-Jun-06 10:44 135 2 gusting 8 13.9
2020-Jun-06 10:30 135 3 gusting 8 13.9
2020-Jun-06 10:29 067 2 gusting 6 14.4
2020-Jun-06 10:15 135 4 gusting 11 14.4
2020-Jun-06 10:14 157 3 gusting 9 15.0
2020-Jun-06 10:00 135 3 gusting 6 15.0
2020-Jun-06 09:59 135 3 gusting 6 15.6
2020-Jun-06 09:45 135 2 gusting 6 15.6
2020-Jun-06 09:44 180 1 gusting 6 15.6
2020-Jun-06 09:30 067 2 gusting 7 15.0
2020-Jun-06 09:29 112 1 gusting 4 15.0
2020-Jun-06 09:15 090 1 gusting 5 15.0
2020-Jun-06 09:14 135 1 gusting 7 15.0
2020-Jun-06 09:00 135 3 gusting 10 15.0
2020-Jun-06 08:59 135 4 gusting 12 15.6
2020-Jun-06 08:45 090 1 gusting 7 15.6
2020-Jun-06 08:44 135 1 gusting 5 15.6
2020-Jun-06 08:30 270 1 gusting 6 15.0
2020-Jun-06 08:29 225 0 gusting 2 15.0
2020-Jun-06 08:15 135 0 gusting 5 15.0
2020-Jun-06 08:14 135 1 gusting 5 14.4
2020-Jun-06 08:00 135 1 gusting 6 14.4
2020-Jun-06 07:59 135 1 gusting 7 14.4
2020-Jun-06 07:45 270 1 gusting 5 14.4
2020-Jun-06 07:44 112 1 gusting 4 14.4
2020-Jun-06 07:30 202 0 gusting 3 13.9
2020-Jun-06 07:29 135 1 gusting 8 13.3
2020-Jun-06 07:15 067 0 gusting 3 13.3
2020-Jun-06 07:14 112 0 gusting 2 13.3
2020-Jun-06 07:00 135 0 gusting 2 12.8
2020-Jun-06 06:59 135 0 gusting 1 12.8
2020-Jun-06 06:45 12.8
2020-Jun-06 06:44 12.8
2020-Jun-06 06:30 12.8
2020-Jun-06 06:29 112 0 gusting 4 12.2
2020-Jun-06 06:15 12.2
2020-Jun-06 06:14 12.2
2020-Jun-06 06:00 135 0 gusting 2 12.2
2020-Jun-06 05:59 135 0 gusting 3 12.2
2020-Jun-06 05:45 135 1 gusting 5 12.2
2020-Jun-06 05:44 135 0 gusting 3 12.2
2020-Jun-06 05:30 12.2
2020-Jun-06 05:29 12.2
2020-Jun-06 05:15 135 0 gusting 2 12.2
2020-Jun-06 05:14 12.2
2020-Jun-06 05:00 12.2
2020-Jun-06 04:59 12.2
2020-Jun-06 04:45 12.2
2020-Jun-06 04:44 112 0 gusting 2 12.2
2020-Jun-06 04:30 11.7
2020-Jun-06 04:29 11.7
2020-Jun-06 04:15 11.7
2020-Jun-06 04:14 11.7
2020-Jun-06 04:00 11.7
2020-Jun-06 03:59 11.7
2020-Jun-06 03:45 11.7
2020-Jun-06 03:44 11.7
2020-Jun-06 03:30 11.7
2020-Jun-06 03:29 11.7
2020-Jun-06 03:15 11.7
2020-Jun-06 03:14 11.7
2020-Jun-06 03:00 11.7
2020-Jun-06 02:59 11.7
2020-Jun-06 02:44 11.7
2020-Jun-06 02:30 11.7
2020-Jun-06 02:29 11.7
2020-Jun-06 02:15 11.7
2020-Jun-06 02:14 11.7
2020-Jun-06 02:00 11.7
2020-Jun-06 01:59 11.7
2020-Jun-06 01:45 11.7
2020-Jun-06 01:44 11.7
2020-Jun-06 01:30 11.7
2020-Jun-06 01:29 112 0 gusting 3 11.7
2020-Jun-06 01:15 11.7
2020-Jun-06 01:14 11.7
2020-Jun-06 01:00 11.7
2020-Jun-06 00:59 11.7
2020-Jun-06 00:45 11.7
2020-Jun-06 00:44 11.7
2020-Jun-06 00:30 090 0 gusting 2 11.7
2020-Jun-06 00:29 11.7
2020-Jun-06 00:15 090 0 gusting 1 11.7
2020-Jun-06 00:14 067 0 gusting 2 11.7
2020-Jun-06 00:00 067 0 gusting 2 11.7
2020-Jun-05 23:59 067 1 gusting 5 11.7
2020-Jun-05 23:45 045 1 gusting 4 11.7
2020-Jun-05 23:44 045 1 gusting 6 11.7
2020-Jun-05 23:30 045 1 gusting 4 11.7
2020-Jun-05 23:29 067 0 gusting 3 11.7
2020-Jun-05 23:15 045 0 gusting 1 11.7
2020-Jun-05 23:14 045 1 gusting 4 11.7
2020-Jun-05 23:00 045 1 gusting 4 11.7
2020-Jun-05 22:59 045 1 gusting 6 11.7
2020-Jun-05 22:45 045 2 gusting 4 11.7
2020-Jun-05 22:44 045 1 gusting 4 11.7
2020-Jun-05 22:30 045 1 gusting 6 11.7
2020-Jun-05 22:29 045 1 gusting 5 11.7
2020-Jun-05 22:15 045 1 gusting 5 11.7
2020-Jun-05 22:14 045 3 gusting 6 11.7
2020-Jun-05 22:00 045 1 gusting 4 11.7
2020-Jun-05 21:59 045 1 gusting 5 11.7
2020-Jun-05 21:45 045 1 gusting 5 11.7
2020-Jun-05 21:44 045 2 gusting 6 11.7
2020-Jun-05 21:30 045 0 gusting 3 11.7
2020-Jun-05 21:29 045 0 gusting 3 11.7
2020-Jun-05 21:15 045 1 gusting 6 11.7
2020-Jun-05 21:14 045 1 gusting 3 11.7
2020-Jun-05 21:00 045 0 gusting 5 11.1
2020-Jun-05 20:59 045 1 gusting 4 11.1
2020-Jun-05 20:45 067 0 gusting 3 11.1
2020-Jun-05 20:44 045 1 gusting 5 11.1
2020-Jun-05 20:30 067 0 gusting 2 11.1
2020-Jun-05 20:29 067 0 gusting 4 11.1
2020-Jun-05 20:15 067 0 gusting 3 11.1
2020-Jun-05 20:14 045 0 gusting 2 11.1
2020-Jun-05 19:45 067 0 gusting 2 11.1
2020-Jun-05 19:44 067 0 gusting 2 11.1
2020-Jun-05 19:30 067 0 gusting 2 11.1
2020-Jun-05 19:29 045 0 gusting 3 11.1
2020-Jun-05 19:15 045 0 gusting 4 11.1
2020-Jun-05 19:14 045 0 gusting 3 11.1
2020-Jun-05 19:00 11.1
2020-Jun-05 18:59 045 0 gusting 2 11.1
2020-Jun-05 18:45 11.7
2020-Jun-05 18:44 11.7
2020-Jun-05 18:29 11.7
2020-Jun-05 18:15 12.2
2020-Jun-05 18:14 12.2
2020-Jun-05 18:00 157 0 gusting 3 12.2
2020-Jun-05 17:59 135 0 gusting 2 12.2
2020-Jun-05 17:44 135 1 gusting 4 12.8
2020-Jun-05 17:30 067 0 gusting 2 13.3
2020-Jun-05 17:29 067 1 gusting 5 13.3
2020-Jun-05 17:15 045 2 gusting 4 13.3
2020-Jun-05 17:14 067 2 gusting 6 13.9
2020-Jun-05 17:00 067 0 gusting 2 13.9
2020-Jun-05 16:59 112 0 gusting 3 13.9
2020-Jun-05 16:45 135 0 gusting 3 13.9
2020-Jun-05 16:44 045 1 gusting 2 13.9
2020-Jun-05 16:30 045 1 gusting 4 14.4
2020-Jun-05 16:29 067 1 gusting 4 14.4
2020-Jun-05 16:15 090 1 gusting 5 14.4
2020-Jun-05 16:14 067 0 gusting 3 14.4
2020-Jun-05 16:00 045 1 gusting 4 14.4
2020-Jun-05 15:59 045 1 gusting 4 14.4
2020-Jun-05 15:45 045 1 gusting 4 14.4
2020-Jun-05 15:44 067 0 gusting 3 14.4
2020-Jun-05 15:30 045 1 gusting 5 14.4
2020-Jun-05 15:29 067 2 gusting 6 15.0
2020-Jun-05 15:15 135 1 gusting 4 15.0
2020-Jun-05 15:14 045 1 gusting 4 15.0
2020-Jun-05 14:59 067 1 gusting 5 15.0
2020-Jun-05 14:45 045 2 gusting 7 15.0
2020-Jun-05 14:44 067 2 gusting 6 15.6
2020-Jun-05 14:30 045 2 gusting 7 15.6
2020-Jun-05 14:29 045 1 gusting 6 15.6
2020-Jun-05 14:15 067 1 gusting 5 15.6
2020-Jun-05 14:14 045 1 gusting 6 15.6
2020-Jun-05 14:00 045 2 gusting 6 16.1
2020-Jun-05 13:59 045 2 gusting 6 16.1
2020-Jun-05 13:45 090 1 gusting 6 16.7
2020-Jun-05 13:44 045 1 gusting 4 16.7
2020-Jun-05 13:30 090 4 gusting 8 16.7
2020-Jun-05 13:29 067 3 gusting 9 17.2
2020-Jun-05 13:15 067 2 gusting 6 17.2
2020-Jun-05 13:14 112 3 gusting 8 17.2
2020-Jun-05 13:00 090 2 gusting 6 17.8
2020-Jun-05 12:59 045 3 gusting 6 17.8
2020-Jun-05 12:44 067 2 gusting 6 17.8
2020-Jun-05 12:30 067 3 gusting 7 17.8
2020-Jun-05 12:29 045 2 gusting 6 17.8
2020-Jun-05 12:15 112 3 gusting 7 17.8
2020-Jun-05 12:14 135 4 gusting 7 17.8
2020-Jun-05 12:00 090 2 gusting 7 18.3
2020-Jun-05 11:59 135 1 gusting 5 18.3
2020-Jun-05 11:45 045 2 gusting 6 18.3
2020-Jun-05 11:44 045 4 gusting 8 17.8
2020-Jun-05 11:30 045 3 gusting 8 18.3
2020-Jun-05 11:29 067 2 gusting 7 18.3
2020-Jun-05 11:15 067 1 gusting 5 17.8
2020-Jun-05 11:14 045 3 gusting 7 17.2
2020-Jun-05 11:00 067 3 gusting 6 17.8
2020-Jun-05 10:59 135 2 gusting 5 18.3
2020-Jun-05 10:45 135 2 gusting 5 18.3
2020-Jun-05 10:44 045 2 gusting 6 18.3
2020-Jun-05 10:30 045 2 gusting 5 17.8
2020-Jun-05 10:29 045 2 gusting 6 17.2
2020-Jun-05 10:15 067 1 gusting 6 17.8
2020-Jun-05 10:14 112 1 gusting 5 17.8
2020-Jun-05 10:00 157 2 gusting 6 17.8
2020-Jun-05 09:59 090 1 gusting 8 17.8
2020-Jun-05 09:45 045 1 gusting 8 17.8
2020-Jun-05 09:44 045 2 gusting 9 17.2
2020-Jun-05 09:30 135 2 gusting 7 17.8
2020-Jun-05 09:29 135 2 gusting 6 18.3
2020-Jun-05 09:15 157 2 gusting 7 17.8
2020-Jun-05 09:14 157 2 gusting 6 17.8
2020-Jun-05 09:00 157 2 gusting 6 16.7
2020-Jun-05 08:59 135 2 gusting 6 16.7
2020-Jun-05 08:45 067 1 gusting 3 16.7
2020-Jun-05 08:44 045 0 gusting 3 16.1
2020-Jun-05 08:30 135 2 gusting 6 16.1
2020-Jun-05 08:29 135 2 gusting 6 16.1
2020-Jun-05 08:15 135 2 gusting 6 15.6
2020-Jun-05 08:14 090 1 gusting 5 15.0
2020-Jun-05 08:00 157 0 gusting 3 14.4
2020-Jun-05 07:59 135 2 gusting 6 14.4
2020-Jun-05 07:44 090 1 gusting 5 14.4
2020-Jun-05 07:30 135 1 gusting 4 15.0
2020-Jun-05 07:29 090 0 gusting 3 14.4
2020-Jun-05 07:15 112 0 gusting 3 14.4
2020-Jun-05 07:14 067 1 gusting 4 13.9
2020-Jun-05 06:45 090 0 gusting 3 13.9
2020-Jun-05 06:44 090 0 gusting 2 13.9
2020-Jun-05 06:30 090 0 gusting 5 13.9
2020-Jun-05 06:29 112 1 gusting 4 13.9
2020-Jun-05 06:15 090 0 gusting 3 13.9
2020-Jun-05 06:14 135 0 gusting 2 13.3
2020-Jun-05 06:00 135 1 gusting 4 13.3
2020-Jun-05 05:59 135 0 gusting 3 12.8
2020-Jun-05 05:45 090 0 gusting 4 12.8
2020-Jun-05 05:44 135 0 gusting 6 12.8
2020-Jun-05 05:30 090 0 gusting 4 12.2
2020-Jun-05 05:29 135 0 gusting 2 12.2
2020-Jun-05 05:15 090 0 gusting 7 12.2
2020-Jun-05 05:14 090 0 gusting 6 12.2
2020-Jun-05 05:00 135 2 gusting 6 12.2
2020-Jun-05 04:59 067 1 gusting 6 12.2
2020-Jun-05 04:45 067 1 gusting 5 12.2
2020-Jun-05 04:44 112 1 gusting 5 11.7
2020-Jun-05 04:30 090 1 gusting 3 11.7
2020-Jun-05 04:29 135 1 gusting 5 11.7
2020-Jun-05 04:15 135 0 gusting 4 11.7
2020-Jun-05 04:14 112 0 gusting 3 11.7
2020-Jun-05 04:00 135 0 gusting 1 11.7
2020-Jun-05 03:59 11.1
2020-Jun-05 03:45 11.1
2020-Jun-05 03:44 11.1
2020-Jun-05 03:30 135 0 gusting 2 11.1
2020-Jun-05 03:29 11.1
2020-Jun-05 03:15 135 0 gusting 2 10.6
2020-Jun-05 03:14 10.6
2020-Jun-05 03:00 10.6
2020-Jun-05 02:59 10.6
2020-Jun-05 02:45 10.0
2020-Jun-05 02:44 10.0
2020-Jun-05 02:30 9.4
2020-Jun-05 02:29 9.4
2020-Jun-05 02:15 8.9
2020-Jun-05 02:14 8.3
2020-Jun-05 02:00 8.3
2020-Jun-05 01:59 8.3
2020-Jun-05 01:45 8.3
2020-Jun-05 01:44 8.3
2020-Jun-05 01:30 8.3
2020-Jun-05 01:29 8.3
2020-Jun-05 01:15 8.3
2020-Jun-05 01:14 8.3
2020-Jun-05 01:00 8.9
2020-Jun-05 00:59 8.9
2020-Jun-05 00:45 8.9
2020-Jun-05 00:44 8.9
2020-Jun-05 00:30 8.9
2020-Jun-05 00:29 8.9
2020-Jun-05 00:15 9.4
2020-Jun-05 00:14 10.0
2020-Jun-05 00:00 10.0
2020-Jun-04 23:59 10.0
2020-Jun-04 23:45 10.6
2020-Jun-04 23:44 10.6
2020-Jun-04 23:30 10.6
2020-Jun-04 23:29 10.6
2020-Jun-04 23:15 10.6
2020-Jun-04 23:14 10.6
2020-Jun-04 23:00 10.6
2020-Jun-04 22:59 10.6
2020-Jun-04 22:45 10.6
2020-Jun-04 22:44 10.6
2020-Jun-04 22:30 10.6
2020-Jun-04 22:29 10.6
2020-Jun-04 22:15 10.6
2020-Jun-04 22:14 11.1
2020-Jun-04 22:00 11.1